Sierra Nevada Aquatic Research Lab (SNARL) Reserve, California Weather observations

Data are for 10 minute period ending at time listed.
 Day   Time   Solar   Ave.   Ave.  Ave.  Vector  Max.   Baro.   Total    
  of    of     Rad.   Air    Rel.  Wind   Wind   Wind  Press.  Precip.   
Year   Day            Temp.  Hum.  Speed  Dir.   Gust                    
2017   (PST)  Kw/m2    F      %     mph   deg.    mph    mb.     in.     
-------------------------------------------------------------------------
 203   18:20   0.11   78.8    28    7.5   279    12.7   787.0    0.00 
 203   18:30   0.08   77.7    29    6.7   275    10.2   787.0    0.00 
 203   18:40   0.06   76.7    30    6.0   285     9.4   787.1    0.00 
 203   18:50   0.03   75.7    30    5.3   284     9.6   787.1    0.00 
 203   19:00   0.01   73.8    32    5.8   318     9.3   787.2    0.00 
 203   19:10   0.00   72.0    34    5.3   320     8.3   787.3    0.00 
 203   19:20   0.00   70.4    35    3.6   301     6.1   787.4    0.00 
 203   19:30   0.00   68.9    36    5.9   277     9.6   787.5    0.00 
 203   19:40   0.00   67.5    37    2.4   206     6.0   787.5    0.00 
 203   19:50   0.00   66.8    39    0.8    39     3.6   787.5    0.00 
 203   20:00   0.00   65.4    41    3.1   345     7.0   787.6    0.00 
 203   20:10   0.00   64.5    41    1.9   247     5.2   787.8    0.00 
 203   20:20   0.00   62.8    42    2.1   253     3.5   787.8    0.00 
 203   20:30   0.00   61.4    44    3.0   245     5.2   787.8    0.00 
 203   20:40   0.00   60.1    46    1.7   244     4.2   787.9    0.00 
 203   20:50   0.00   59.4    47    2.0   238     3.4   788.0    0.00 
 203   21:00   0.00   58.4    48    3.3   219     5.1   788.0    0.00 
 203   21:10   0.00   58.5    49    4.2   219     5.6   788.1    0.00 
 203   21:20   0.00   59.5    48    3.9   221     5.1   788.1    0.00 
 203   21:30   0.00   59.3    49    3.5   211     4.9   788.1    0.00 
 203   21:40   0.00   60.2    48    2.8   273     4.6   788.0    0.00 
 203   21:50   0.00   61.2    46    2.2   213     5.6   788.0    0.00 
 203   22:00   0.00   61.2    48    2.0   228     5.6   788.0    0.00 
 203   22:10   0.00   59.8    49    2.6   312     6.9   788.0    0.00 
 203   22:20   0.00   59.8    48    1.9    93     4.5   788.1    0.00 
 203   22:30   0.00   57.8    51    0.8   186     2.0   788.1    0.00 
 203   22:40   0.00   57.2    52    1.9   240     3.0   788.1    0.00 
 203   22:50   0.00   56.7    51    2.6   223     4.3   788.1    0.00 
 203   23:00   0.00   57.1    50    3.2   236     4.6   788.1    0.00 
 203   23:10   0.00   57.8    49    1.4   234     3.3   788.0    0.00 
 203   23:20   0.00   56.4    52    1.2   253     2.6   788.0    0.00 
 203   23:30   0.00   55.1    57    2.5   313     3.7   788.0    0.00 
 203   23:40   0.00   53.1    56    3.7   198     6.8   788.0    0.00 
 203   23:50   0.00   53.1    55    2.6   182     4.2   788.0    0.00 
 204    0:00   0.00   53.6    55    2.4   222     3.9   788.0    0.00 
 204    0:10   0.00   55.0    53    2.7   241     4.5   788.1    0.00 
 204    0:20   0.00   54.9    54    2.6   236     3.9   788.0    0.00 
 204    0:30   0.00   55.3    52    2.2   226     3.6   788.0    0.00 
 204    0:40   0.00   54.3    55    0.7   177     1.9   788.0    0.00 
 204    0:50   0.00   53.6    57    1.0   242     3.4   788.1    0.00 
 204    1:00   0.00   52.9    58    1.1   201     1.8   788.1    0.00 
 204    1:10   0.00   52.3    58    1.6   235     4.0   788.0    0.00 
 204    1:20   0.00   52.7    57    4.2   233     5.0   788.1    0.00 
 204    1:30   0.00   52.5    58    3.9   241     4.8   788.0    0.00 
 204    1:40   0.00   53.0    60    3.2   266     4.9   787.8    0.00 
 204    1:50   0.00   52.6    62    2.5   324     4.5   787.8    0.00 
 204    2:00   0.00   51.3    63    2.5   293     4.5   787.8    0.00 
 204    2:10   0.00   49.8    63    1.1   182     2.3   787.8    0.00 
 204    2:20   0.00   49.2    64    1.3   213     2.4   787.8    0.00 
 204    2:30   0.00   48.9    64    1.6   236     4.4   787.8    0.00 
 204    2:40   0.00   49.4    62    1.7   245     4.2   787.8    0.00 
 204    2:50   0.00   49.2    64    2.4   250     3.6   787.8    0.00 
 204    3:00   0.00   49.3    68    1.2   256     2.6   787.8    0.00 
 204    3:10   0.00   49.3    67    0.7   248     1.8   787.8    0.00 
 204    3:20   0.00   48.5    70    0.4   306     2.0   787.8    0.00 
 204    3:30   0.00   46.7    70    0.9   250     2.0   787.9    0.00 
 204    3:40   0.00   46.6    69    0.2   153     1.1   788.0    0.00 
 204    3:50   0.00   46.4    67    1.7   253     2.7   788.0    0.00 
 204    4:00   0.00   45.9    76    2.9   320     5.0   788.0    0.00 
 204    4:10   0.00   46.1    70    0.5     0     3.2   788.0    0.00 
 204    4:20   0.00   45.9    72    0.5   289     1.7   788.0    0.00 
 204    4:30   0.00   45.5    73    0.3    57     0.9   788.1    0.00 
 204    4:40   0.00   45.0    72    1.1   167     1.9   788.2    0.00 
 204    4:50   0.00   44.5    72    1.2   186     2.0   788.1    0.00 
 204    5:00   0.00   44.8    72    2.3   265     4.0   788.2    0.00 
 204    5:10   0.00   46.6    68    2.3   252     3.5   788.2    0.00 
 204    5:20   0.01   46.3    72    2.9   254     4.2   788.0    0.00 
 204    5:30   0.01   47.6    72    1.8   313     5.6   788.0    0.00 
 204    5:40   0.02   50.6    62    4.2    75     6.5   788.0    0.00 
 204    5:50   0.10   52.9    58    3.2    77     6.3   788.2    0.00 
 204    6:00   0.14   54.2    62    1.6   288     4.5   788.4    0.00 
 204    6:10   0.17   56.1    60    2.4   257     3.8   788.2    0.00 
 204    6:20   0.21   59.1    56    1.3    38     2.6   788.2    0.00 
 204    6:30   0.24   63.8    50    0.2   346     1.0   788.1    0.00 
 204    6:40   0.28   65.6    47    1.8    33     3.1   788.1    0.00 
 204    6:50   0.31   66.1    46    1.6   110     4.2   788.1    0.00 
 204    7:00   0.34   67.6    44    1.6    12     3.4   788.1    0.00 
 204    7:10   0.38   68.7    44    1.4   321     2.6   788.1    0.00 
 204    7:20   0.42   69.9    44    2.6    63     5.7   788.2    0.00 
 204    7:30   0.45   69.2    46    1.2    53     4.7   788.3    0.00 
 204    7:40   0.48   71.2    42    1.1   340     2.8   788.3    0.00 
 204    7:50   0.52   73.1    39    1.3   337     2.6   788.3    0.00 
 204    8:00   0.55   75.5    33    1.0     1     2.6   788.4    0.00 
 204    8:10   0.58   77.6    28    0.6   306     2.0   788.4    0.00 
 204    8:20   0.61   78.1    27    1.0   247     2.6   788.3    0.00 
 204    8:30   0.65   78.3    28    1.9    16     4.5   788.3    0.00 
 204    8:40   0.68   78.5    26    1.3    55     3.4   788.4    0.00 
 204    8:50   0.66   79.7    26    1.9   328     3.7   788.3    0.00 
 204    9:00   0.73   79.5    26    2.0    93     4.5   788.2    0.00 
 204    9:10   0.76   79.5    29    3.6    75     6.1   788.2    0.00 
 204    9:20   0.78   79.1    30    4.9    81     8.3   788.1    0.00 
 204    9:30   0.81   79.6    28    4.0    91     9.3   788.1    0.00 
 204    9:40   0.83   80.0    27    4.0    72     8.4   788.1    0.00 
 204    9:50   0.85   80.1    26    6.9    95    10.7   788.1    0.00 
 204   10:00   0.87   80.2    26    6.1    92    13.7   788.1    0.00 
 204   10:10   0.89   80.9    26    7.0    88    12.4   788.0    0.00 
 204   10:20   0.91   81.6    25    6.6    95    12.4   788.0    0.00 
 204   10:30   0.93   81.6    23    9.8    98    15.0   788.0    0.00 
 204   10:40   0.94   82.2    22    9.0   100    13.4   787.9    0.00 
 204   10:50   0.69   81.4    22    9.3   100    14.7   787.8    0.00 
 204   11:00   0.80   81.6    22    9.0   112    14.5   787.8    0.00 
 204   11:10   1.03   83.0    22    8.8    78    17.2   787.7    0.00 
 204   11:20   0.82   82.5    22    9.6    92    15.2   787.6    0.00 
 204   11:30   0.83   83.3    22    8.4    97    16.8   787.5    0.00 
 204   11:40   0.58   82.1    23    8.6   108    15.1   787.5    0.00 
 204   11:50   0.50   81.1    24    8.3   110    13.4   787.4    0.00 
 204   12:00   0.54   81.7    23   10.1   100    17.8   787.3    0.00 
 204   12:10   0.68   81.7    24    8.6   100    15.4   787.2    0.00 
 204   12:20   0.79   83.4    24    8.5   103    14.8   787.2    0.00 
 204   12:30   0.41   82.2    23    6.2    85    12.7   787.1    0.00 
 204   12:40   0.69   81.8    24    3.7    76     8.0   787.0    0.00 
 204   12:50   0.50   81.8    25    3.8    97     9.7   787.0    0.00 
 204   13:00   0.90   84.2    23    4.7    95    10.1   786.9    0.00 
 204   13:10   1.05   85.3    20    8.1   231    20.6   786.8    0.00 
 204   13:20   0.41   84.1    20   13.9   233    21.3   786.6    0.00 
 204   13:30   0.80   83.8    20   11.0   221    17.7   786.6    0.00 
 204   13:40   0.85   85.1    20   12.8   242    29.8   786.5    0.00 
 204   13:50   0.49   83.7    20   12.5   228    20.2   786.4    0.00 
 204   14:00   0.48   83.4    20   14.7   240    22.7   786.3    0.00 
 204   14:10   0.95   85.1    20    9.3   248    21.3   786.2    0.00 
 204   14:20   0.95   85.8    20   10.1   224    20.8   786.1    0.00 
 204   14:30   0.90   86.1    20    9.2   218    21.2   786.0    0.00 
 204   14:40   0.84   85.7    20   11.2   232    17.5   785.9    0.00 
 204   14:50   0.83   85.5    20    9.7   251    20.0   785.8    0.00 
 204   15:00   0.83   85.8    20    7.8   236    22.7   785.7    0.00 
 204   15:10   0.85   85.7    21   10.7   267    20.8   785.6    0.00 
 204   15:20   0.76   85.1    22   12.0   241    24.3   785.6    0.00 
 204   15:30   0.69   84.7    22   13.1   221    20.1   785.5    0.00 
 204   15:40   0.64   84.1    23   11.2   242    20.5   785.6    0.00 
 204   15:50   0.60   83.8    23   13.1   237    22.7   785.6    0.00 
 204   16:00   0.57   83.3    24   12.9   236    21.3   785.6    0.00 
 204   16:10   0.54   83.1    24   12.7   230    20.2   785.6    0.00 
 204   16:20   0.52   82.6    24   14.1   247    21.2   785.6    0.00 
 204   16:30   0.50   82.2    25   16.7   241    22.2   785.5    0.00 
 204   16:40   0.46   82.0    25   16.1   231    25.9   785.5    0.00 
 204   16:50   0.42   81.9    26   12.8   232    21.5   785.4    0.00 
 204   17:00   0.38   81.7    26   13.9   229    25.7   785.4    0.00 
 204   17:10   0.34   81.9    25   12.9   217    20.7   785.4    0.00 
 204   17:20   0.31   81.3    26   14.8   220    23.3   785.3    0.00 
 204   17:30   0.28   80.7    26   15.3   222    24.6   785.2    0.00 
 204   17:40   0.29   80.7    26   12.2   223    19.6   785.3    0.00 
 204   17:50   0.26   80.5    27   14.6   220    25.1   785.3    0.00 
 204   18:00   0.19   79.5    27   16.2   216    25.7   785.4    0.00 
 204   18:10   0.18   79.4    28   15.2   210    26.0   785.4    0.00 

Return to SNARL Reserve graphs page.


Western Regional Climate Center,wrcc@dri.edu